• Join FlightAware (Why Join?)
  • Login
  • US Flag 
09:41AM EDT


 

Airport Tracker/Info


-or-


 

Live Flight TrackerFlight Track Log ✈ C-GDSJ ✈ 25-Aug-2014 ✈ CYAM - CYTZ

Flight Track Log - Related Links

Times and Time Zones

All times are in EDT time to prevent confusion due to time zone crossing. See the C-GDSJ flight status page for this flight to view local times or setup timezone preferences in your user account.

Time Position Orientation Groundspeed Altitude Reporting Facility
EDT Latitude Longitude Course Direction KTS MPH feet Rate Location/Type
02:22PM 46.4667 -84.5000 90° East 70 81 800  Level Toronto Center
02:23PM 46.4667 -84.4667 90° East 90 104 1,600 660 Climbing Toronto Center
02:25PM 46.4333 -84.4000 110° East 110 127 2,800 540 Climbing Toronto Center
02:26PM 46.4167 -84.3500 116° Southeast 110 127 3,300 480 Climbing Toronto Center
02:27PM 46.4167 -84.3000 90° East 120 138 3,800 480 Climbing Toronto Center
02:28PM 46.4000 -84.2833 145° Southeast 120 138 4,300 480 Climbing Toronto Center
02:30PM 46.3833 -84.1833 102° East 120 138 5,300 480 Climbing Toronto Center
02:31PM 46.3667 -84.1333 116° Southeast 120 138 5,800 480 Climbing Toronto Center
02:33PM 46.3500 -84.0333 104° East 120 138 6,800 300 Climbing Toronto Center
02:35PM 46.3167 -83.9333 116° Southeast 150 173 7,000 60 Climbing Toronto Center
02:36PM 46.2833 -83.8833 134° Southeast 150 173 7,000  Level Toronto Center
02:38PM 46.2667 -83.7500 100° East 160 184 7,000  Level Toronto Center
02:39PM 46.2500 -83.7000 116° Southeast 160 184 7,000  Level Toronto Center
02:41PM 46.2167 -83.5833 112° Southeast 160 184 7,000  Level Toronto Center
02:42PM 46.2000 -83.5333 116° Southeast 160 184 7,000  Level Toronto Center
02:43PM 46.1833 -83.4667 110° East 160 184 7,000  Level Toronto Center
02:44PM 46.1667 -83.4167 116° Southeast 160 184 7,000  Level Toronto Center
02:45PM 46.1500 -83.3333 106° East 150 173 7,000  Level Toronto Center
02:46PM 46.1333 -83.2833 116° Southeast 160 184 7,000  Level Toronto Center
02:47PM 46.1167 -83.2333 116° Southeast 160 184 7,000  Level Toronto Center
02:48PM 46.1000 -83.1667 110° East 160 184 7,000  Level Toronto Center
02:49PM 46.0833 -83.1167 116° Southeast 160 184 7,000  Level Toronto Center
02:50PM 46.0667 -83.0667 116° Southeast 160 184 7,000  Level Toronto Center
02:51PM 46.0500 -83.0000 110° East 150 173 7,000  Level Toronto Center
02:52PM 46.0333 -82.9500 116° Southeast 150 173 7,000  Level Toronto Center
02:53PM 46.0167 -82.9000 116° Southeast 150 173 7,000  Level Toronto Center
02:54PM 45.9833 -82.8500 134° Southeast 150 173 7,000  Level Toronto Center
02:55PM 45.9667 -82.7833 110° East 150 173 7,000  Level Toronto Center
02:56PM 45.9500 -82.7333 116° Southeast 150 173 7,000  Level Toronto Center
02:57PM 45.9500 -82.6833 90° East 150 173 7,000  Level Toronto Center
02:58PM 45.9333 -82.6000 106° East 160 184 7,000  Level Toronto Center
02:59PM 45.9167 -82.5500 116° Southeast 160 184 7,000  Level Toronto Center
03:00PM 45.9000 -82.4833 110° East 160 184 7,000  Level Toronto Center
03:01PM 45.8833 -82.4333 116° Southeast 150 173 7,000  Level Toronto Center
03:02PM 45.8667 -82.3833 116° Southeast 150 173 7,000  Level Toronto Center
03:03PM 45.8500 -82.3333 116° Southeast 150 173 7,000  Level Toronto Center
03:05PM 45.8167 -82.2167 112° Southeast 150 173 7,000  Level Toronto Center
03:06PM 45.8000 -82.1667 116° Southeast 150 173 7,000  Level Toronto Center
03:07PM 45.7833 -82.1000 110° East 150 173 7,000  Level Toronto Center
03:08PM 45.7500 -82.0500 134° Southeast 140 161 7,000  Level Toronto Center
03:10PM 45.6833 -82.0000 152° Southeast 140 161 7,100  Climbing Toronto Center
03:11PM 45.6667 -81.9500 115° Southeast 140 161 7,100  Level Toronto Center
03:12PM 45.6333 -81.9167 145° Southeast 140 161 7,100  Level Toronto Center
03:14PM 45.5667 -81.8667 152° Southeast 140 161 7,100  Level Toronto Center
03:15PM 45.5333 -81.8167 134° Southeast 160 184 7,100 -60 Level Toronto Center
03:16PM 45.5000 -81.8000 161° South 140 161 7,000 -60 Descending Toronto Center
03:17PM 45.4667 -81.7667 145° Southeast 140 161 7,000  Level Toronto Center
03:18PM 45.4333 -81.7167 134° Southeast 140 161 7,000  Level Toronto Center
03:19PM 45.4000 -81.7000 161° South 140 161 7,000  Level Toronto Center
03:20PM 45.3667 -81.6667 145° Southeast 150 173 7,100  Climbing Toronto Center
03:21PM 45.3333 -81.6500 161° South 150 173 7,100  Level Toronto Center
03:22PM 45.3000 -81.6167 145° Southeast 140 161 7,100  Level Toronto Center
03:24PM 45.2167 -81.5500 151° Southeast 150 173 7,100  Level Toronto Center
03:25PM 45.1833 -81.5167 145° Southeast 150 173 7,100  Level Toronto Center
03:26PM 45.1500 -81.4833 145° Southeast 150 173 7,100  Level Toronto Center
03:27PM 45.1167 -81.4500 145° Southeast 150 173 7,100  Level Toronto Center
03:29PM 45.0500 -81.3833 145° Southeast 150 173 7,100  Level Toronto Center
03:30PM 45.0167 -81.3500 145° Southeast 150 173 7,100  Level Toronto Center
03:31PM 44.9833 -81.3333 161° South 140 161 7,100  Level Toronto Center
03:32PM 44.9500 -81.3000 145° Southeast 140 161 7,100  Level Toronto Center
03:33PM 44.9167 -81.2500 133° Southeast 150 173 7,100  Level Toronto Center
03:34PM 44.8833 -81.2333 160° South 150 173 7,100 -120 Level Toronto Center
03:56PM 44.3000 -80.3833 110° East 140 161 5,100 -120 Descending Toronto Center
03:57PM 44.2515 -80.3198 131° Southeast  Level FlightAware Approximate
03:57PM 44.2667 -80.3500 144° Southeast 140 161 5,100  Level Toronto Center
03:59PM 44.2167 -80.2667 133° Southeast 130 150 5,000 -60 Descending Toronto Center
04:00PM 44.1722 -80.1945 131° Southeast  Level FlightAware Approximate
04:00PM 44.2000 -80.2333 125° Southeast 130 150 5,000  Level Toronto Center
04:01PM 44.1457 -80.1528 131° Southeast  Level FlightAware Approximate
04:02PM 44.1260 -80.1056 110° East  Level FlightAware Approximate
04:02PM 44.1667 -80.1167 112° Southeast 130 150 5,000  Level Toronto Center
04:03PM 44.1500 -80.0667 115° Southeast 140 161 5,000  Level Toronto Center
04:04PM 44.1333 -80.0333 125° Southeast 130 150 5,000 -240 Level Toronto Center
04:05PM 44.1167 -79.9833 115° Southeast 140 161 4,600 -360 Descending Toronto Center
04:07PM 44.1000 -79.8833 107° East 140 161 4,000 -240 Descending Toronto Center
04:08PM 44.0833 -79.8333 115° Southeast 130 150 4,000 -180 Level Toronto Center
04:09PM 44.0667 -79.8000 125° Southeast 130 150 3,700 -420 Descending Toronto Center
04:10PM 44.0500 -79.7500 115° Southeast 130 150 3,200 -360 Descending Toronto Center
04:11PM 44.0333 -79.7000 115° Southeast 130 150 3,000  Descending Toronto Center
04:12PM 44.0333 -79.6500 90° East 120 138 3,200  Climbing Toronto Center
04:14PM 44.0167 -79.5333 113° Southeast 130 150 3,000 -120 Descending Toronto Center
04:15PM 44.0000 -79.5000 125° Southeast 130 150 3,000  Level Toronto Center
04:16PM 43.9833 -79.4500 115° Southeast 130 150 3,000  Level Toronto Center
04:17PM 43.9833 -79.4000 90° East 130 150 3,000  Level Toronto Center
04:18PM 43.9667 -79.3500 115° Southeast 130 150 3,000  Level Toronto Center
04:19PM 43.9500 -79.3167 125° Southeast 130 150 3,000  Level Toronto Center
04:20PM 43.9333 -79.2833 125° Southeast 130 150 3,000  Level Toronto Center
04:21PM 43.9167 -79.2333 115° Southeast 130 150 3,000  Level Toronto Center
04:22PM 43.8833 -79.2333 180° South 120 138 3,000  Level Toronto Center
04:23PM 43.8500 -79.2333 180° South 120 138 3,000  Level Toronto Center
04:26PM 43.7500 -79.2167 North 120 138 3,000 -60 Level Toronto Center
04:27PM 43.7167 -79.2167 180° South 110 127 2,900 -360 Descending Toronto Center
04:28PM 43.6833 -79.2000 160° South 120 138 2,400 -300 Descending Toronto Center
04:29PM 43.6500 -79.2167 200° South 120 138 2,400  Level Toronto Center
04:31PM 43.6167 -79.2833 270° West 130 150 2,400  Level Toronto Center
04:32PM 43.6167 -79.3833 North  Level FlightAware Approximate
04:32PM 43.6000 -79.3333 245° Southwest 120 138 2,400  Level Toronto Center
04:33PM 43.6000 -79.3833 270° West 100 115 1,800 -600 Descending Toronto Center
04:35PM 43.6275 -79.3961 North  Level Estimated